Union, Texas
Current Conditions -  °F | °C
As of 8:55 AM on Sunday 21 Dec 2014 (Local Time) from KSNK Reporting Station
Overcast Overcast  
Wind Chill: 41°   Ceiling: 1500
Heat Index: 47°   Visibility: 10mi
Dew Point: 43°   Wind: 13mph
Humidity: 86%   Direction: 210°SSW
Pressure: 29.97"   Gusts: NA
Location:  33.0123°N, 100.833°W
Report Text: KSNK 211455Z AUTO 21011KT 10SM OVC015 08/06 A2997 RMK AO2 T00830060
Loading
Personal Weather Stations






























Interactive Weather Map New forecast layout! Learn more

10-Day Weather Forecast

Advertisements
Track Severe Weather on mobile